sensor_id;sensor_type;location;lat;lon;timestamp;temperature;humidity
16521;DHT22;8373;48.110;11.522;2022-12-18T00:01:14;-1.00;81.60
16521;DHT22;8373;48.110;11.522;2022-12-18T00:03:41;-1.00;81.40
16521;DHT22;8373;48.110;11.522;2022-12-18T00:06:08;-1.10;81.60
16521;DHT22;8373;48.110;11.522;2022-12-18T00:08:35;-1.10;82.10
16521;DHT22;8373;48.110;11.522;2022-12-18T00:11:04;-1.10;82.40
16521;DHT22;8373;48.110;11.522;2022-12-18T00:13:31;-1.10;82.40
16521;DHT22;8373;48.110;11.522;2022-12-18T00:16:01;-1.10;82.30
16521;DHT22;8373;48.110;11.522;2022-12-18T00:18:30;-1.10;82.50
16521;DHT22;8373;48.110;11.522;2022-12-18T00:20:58;-1.20;82.70
16521;DHT22;8373;48.110;11.522;2022-12-18T00:23:26;-1.10;83.00
16521;DHT22;8373;48.110;11.522;2022-12-18T00:25:53;-1.20;82.70
16521;DHT22;8373;48.110;11.522;2022-12-18T00:28:20;-1.10;83.10
16521;DHT22;8373;48.110;11.522;2022-12-18T00:30:47;-1.20;83.20
16521;DHT22;8373;48.110;11.522;2022-12-18T00:33:16;-1.30;82.80
16521;DHT22;8373;48.110;11.522;2022-12-18T00:35:45;-1.40;83.30
16521;DHT22;8373;48.110;11.522;2022-12-18T00:38:12;-1.50;83.20
16521;DHT22;8373;48.110;11.522;2022-12-18T00:40:39;-1.50;83.80
16521;DHT22;8373;48.110;11.522;2022-12-18T00:43:09;-1.60;83.80
16521;DHT22;8373;48.110;11.522;2022-12-18T00:45:35;-1.60;84.30
16521;DHT22;8373;48.110;11.522;2022-12-18T00:48:02;-1.70;84.20
16521;DHT22;8373;48.110;11.522;2022-12-18T00:50:29;-1.70;84.40
16521;DHT22;8373;48.110;11.522;2022-12-18T00:52:57;-1.70;85.00
16521;DHT22;8373;48.110;11.522;2022-12-18T00:55:24;-1.70;84.50
16521;DHT22;8373;48.110;11.522;2022-12-18T00:57:51;-1.80;84.70
16521;DHT22;8373;48.110;11.522;2022-12-18T01:00:19;-1.70;85.50
16521;DHT22;8373;48.110;11.522;2022-12-18T01:02:45;-1.70;85.70
16521;DHT22;8373;48.110;11.522;2022-12-18T01:05:13;-1.60;85.60
16521;DHT22;8373;48.110;11.522;2022-12-18T01:07:41;-1.60;85.00
16521;DHT22;8373;48.110;11.522;2022-12-18T01:10:10;-1.50;84.60
16521;DHT22;8373;48.110;11.522;2022-12-18T01:12:38;-1.60;83.70
16521;DHT22;8373;48.110;11.522;2022-12-18T01:15:06;-1.70;83.50
16521;DHT22;8373;48.110;11.522;2022-12-18T01:17:34;-1.70;84.20
16521;DHT22;8373;48.110;11.522;2022-12-18T01:20:02;-1.70;84.80
16521;DHT22;8373;48.110;11.522;2022-12-18T01:22:29;-1.70;84.80
16521;DHT22;8373;48.110;11.522;2022-12-18T01:25:03;-1.70;84.70
16521;DHT22;8373;48.110;11.522;2022-12-18T01:27:33;-1.60;84.80
16521;DHT22;8373;48.110;11.522;2022-12-18T01:30:00;-1.60;84.00
16521;DHT22;8373;48.110;11.522;2022-12-18T01:32:29;-1.70;83.60
16521;DHT22;8373;48.110;11.522;2022-12-18T01:34:57;-1.70;83.70
16521;DHT22;8373;48.110;11.522;2022-12-18T01:37:23;-1.70;84.10
16521;DHT22;8373;48.110;11.522;2022-12-18T01:39:52;-1.80;83.60
16521;DHT22;8373;48.110;11.522;2022-12-18T01:42:20;-1.70;83.90
16521;DHT22;8373;48.110;11.522;2022-12-18T01:44:56;-1.70;83.50
16521;DHT22;8373;48.110;11.522;2022-12-18T01:47:26;-1.70;82.90
16521;DHT22;8373;48.110;11.522;2022-12-18T01:49:54;-1.80;82.70
16521;DHT22;8373;48.110;11.522;2022-12-18T01:52:22;-2.00;83.40
16521;DHT22;8373;48.110;11.522;2022-12-18T01:54:51;-2.20;84.30
16521;DHT22;8373;48.110;11.522;2022-12-18T01:57:18;-2.30;84.70
16521;DHT22;8373;48.110;11.522;2022-12-18T01:59:49;-2.30;85.20
16521;DHT22;8373;48.110;11.522;2022-12-18T02:02:20;-2.30;85.60
16521;DHT22;8373;48.110;11.522;2022-12-18T02:04:47;-2.30;85.90
16521;DHT22;8373;48.110;11.522;2022-12-18T02:07:24;-2.30;85.80
16521;DHT22;8373;48.110;11.522;2022-12-18T02:10:00;-2.30;85.70
16521;DHT22;8373;48.110;11.522;2022-12-18T02:12:35;-2.20;86.10
16521;DHT22;8373;48.110;11.522;2022-12-18T02:15:10;-2.20;85.70
16521;DHT22;8373;48.110;11.522;2022-12-18T02:17:43;-2.20;85.70
16521;DHT22;8373;48.110;11.522;2022-12-18T02:20:16;-2.10;85.90
16521;DHT22;8373;48.110;11.522;2022-12-18T02:22:55;-2.10;86.10
16521;DHT22;8373;48.110;11.522;2022-12-18T02:25:39;-2.00;86.00
16521;DHT22;8373;48.110;11.522;2022-12-18T02:28:11;-1.90;85.80
16521;DHT22;8373;48.110;11.522;2022-12-18T02:30:40;-1.90;85.10
16521;DHT22;8373;48.110;11.522;2022-12-18T02:33:08;-1.90;84.70
16521;DHT22;8373;48.110;11.522;2022-12-18T02:35:37;-1.90;84.70
16521;DHT22;8373;48.110;11.522;2022-12-18T02:38:06;-1.90;84.90
16521;DHT22;8373;48.110;11.522;2022-12-18T02:40:33;-1.90;84.70
16521;DHT22;8373;48.110;11.522;2022-12-18T02:43:08;-2.00;84.80
16521;DHT22;8373;48.110;11.522;2022-12-18T02:45:36;-2.00;85.00
16521;DHT22;8373;48.110;11.522;2022-12-18T02:48:12;-2.10;84.80
16521;DHT22;8373;48.110;11.522;2022-12-18T02:50:45;-2.20;85.10
16521;DHT22;8373;48.110;11.522;2022-12-18T02:53:18;-2.20;85.80
16521;DHT22;8373;48.110;11.522;2022-12-18T02:55:59;-2.30;86.10
16521;DHT22;8373;48.110;11.522;2022-12-18T02:58:35;-2.30;86.30
16521;DHT22;8373;48.110;11.522;2022-12-18T03:01:10;-2.20;86.80
16521;DHT22;8373;48.110;11.522;2022-12-18T03:03:41;-2.20;86.40
16521;DHT22;8373;48.110;11.522;2022-12-18T03:06:13;-2.20;86.30
16521;DHT22;8373;48.110;11.522;2022-12-18T03:08:46;-2.10;86.50
16521;DHT22;8373;48.110;11.522;2022-12-18T03:11:15;-2.00;86.20
16521;DHT22;8373;48.110;11.522;2022-12-18T03:14:06;-2.20;85.30
16521;DHT22;8373;48.110;11.522;2022-12-18T03:16:34;-2.20;85.90
16521;DHT22;8373;48.110;11.522;2022-12-18T03:19:05;-2.20;85.80
16521;DHT22;8373;48.110;11.522;2022-12-18T03:21:35;-2.30;85.60
16521;DHT22;8373;48.110;11.522;2022-12-18T03:24:06;-2.30;86.10
16521;DHT22;8373;48.110;11.522;2022-12-18T03:26:35;-2.20;87.00
16521;DHT22;8373;48.110;11.522;2022-12-18T03:29:08;-2.20;86.70
16521;DHT22;8373;48.110;11.522;2022-12-18T03:31:37;-2.20;86.40
16521;DHT22;8373;48.110;11.522;2022-12-18T03:34:11;-2.10;86.60
16521;DHT22;8373;48.110;11.522;2022-12-18T03:36:39;-2.00;86.20
16521;DHT22;8373;48.110;11.522;2022-12-18T03:39:07;-2.00;86.30
16521;DHT22;8373;48.110;11.522;2022-12-18T03:41:41;-2.00;85.40
16521;DHT22;8373;48.110;11.522;2022-12-18T03:44:14;-2.00;85.40
16521;DHT22;8373;48.110;11.522;2022-12-18T03:46:46;-2.00;84.80
16521;DHT22;8373;48.110;11.522;2022-12-18T03:49:23;-2.10;84.50
16521;DHT22;8373;48.110;11.522;2022-12-18T03:51:54;-2.20;85.00
16521;DHT22;8373;48.110;11.522;2022-12-18T03:54:25;-2.20;85.60
16521;DHT22;8373;48.110;11.522;2022-12-18T03:56:57;-2.20;86.00
16521;DHT22;8373;48.110;11.522;2022-12-18T03:59:27;-2.20;86.10
16521;DHT22;8373;48.110;11.522;2022-12-18T04:01:57;-2.20;85.90
16521;DHT22;8373;48.110;11.522;2022-12-18T04:04:27;-2.20;86.10
16521;DHT22;8373;48.110;11.522;2022-12-18T04:06:55;-2.20;86.20
16521;DHT22;8373;48.110;11.522;2022-12-18T04:09:23;-2.20;86.10
16521;DHT22;8373;48.110;11.522;2022-12-18T04:11:51;-2.20;86.10
16521;DHT22;8373;48.110;11.522;2022-12-18T04:14:19;-2.10;86.20
16521;DHT22;8373;48.110;11.522;2022-12-18T04:16:48;-2.10;86.60
16521;DHT22;8373;48.110;11.522;2022-12-18T04:19:15;-2.00;86.40
16521;DHT22;8373;48.110;11.522;2022-12-18T04:21:42;-1.90;86.10
16521;DHT22;8373;48.110;11.522;2022-12-18T04:24:09;-1.90;85.00
16521;DHT22;8373;48.110;11.522;2022-12-18T04:26:36;-2.00;84.00
16521;DHT22;8373;48.110;11.522;2022-12-18T04:29:03;-2.20;84.20
16521;DHT22;8373;48.110;11.522;2022-12-18T04:31:30;-2.20;85.20
16521;DHT22;8373;48.110;11.522;2022-12-18T04:33:59;-2.10;86.10
16521;DHT22;8373;48.110;11.522;2022-12-18T04:36:26;-2.10;86.00
16521;DHT22;8373;48.110;11.522;2022-12-18T04:38:53;-2.00;85.90
16521;DHT22;8373;48.110;11.522;2022-12-18T04:41:19;-1.90;86.00
16521;DHT22;8373;48.110;11.522;2022-12-18T04:43:46;-2.00;85.00
16521;DHT22;8373;48.110;11.522;2022-12-18T04:46:13;-2.10;84.70
16521;DHT22;8373;48.110;11.522;2022-12-18T04:48:40;-2.10;85.00
16521;DHT22;8373;48.110;11.522;2022-12-18T04:51:09;-2.20;85.20
16521;DHT22;8373;48.110;11.522;2022-12-18T04:53:36;-2.20;84.90
16521;DHT22;8373;48.110;11.522;2022-12-18T04:56:04;-2.20;85.20
16521;DHT22;8373;48.110;11.522;2022-12-18T04:58:32;-2.20;85.50
16521;DHT22;8373;48.110;11.522;2022-12-18T05:00:59;-2.10;86.00
16521;DHT22;8373;48.110;11.522;2022-12-18T05:03:26;-2.10;85.70
16521;DHT22;8373;48.110;11.522;2022-12-18T05:05:53;-2.00;85.50
16521;DHT22;8373;48.110;11.522;2022-12-18T05:08:22;-2.10;85.20
16521;DHT22;8373;48.110;11.522;2022-12-18T05:10:49;-2.00;85.70
16521;DHT22;8373;48.110;11.522;2022-12-18T05:13:16;-1.90;85.60
16521;DHT22;8373;48.110;11.522;2022-12-18T05:15:43;-1.80;85.40
16521;DHT22;8373;48.110;11.522;2022-12-18T05:18:17;-1.70;84.80
16521;DHT22;8373;48.110;11.522;2022-12-18T05:20:44;-1.70;84.50
16521;DHT22;8373;48.110;11.522;2022-12-18T05:23:11;-1.60;84.10
16521;DHT22;8373;48.110;11.522;2022-12-18T05:25:40;-1.60;83.30
16521;DHT22;8373;48.110;11.522;2022-12-18T05:28:07;-1.60;83.00
16521;DHT22;8373;48.110;11.522;2022-12-18T05:30:34;-1.60;82.80
16521;DHT22;8373;48.110;11.522;2022-12-18T05:33:01;-1.50;82.70
16521;DHT22;8373;48.110;11.522;2022-12-18T05:35:28;-1.60;82.00
16521;DHT22;8373;48.110;11.522;2022-12-18T05:37:55;-1.70;81.70
16521;DHT22;8373;48.110;11.522;2022-12-18T05:40:22;-1.80;81.80
16521;DHT22;8373;48.110;11.522;2022-12-18T05:42:50;-2.00;82.10
16521;DHT22;8373;48.110;11.522;2022-12-18T05:45:17;-1.90;82.90
16521;DHT22;8373;48.110;11.522;2022-12-18T05:47:44;-2.00;83.10
16521;DHT22;8373;48.110;11.522;2022-12-18T05:50:11;-2.00;83.10
16521;DHT22;8373;48.110;11.522;2022-12-18T05:52:38;-2.10;83.00
16521;DHT22;8373;48.110;11.522;2022-12-18T05:55:06;-2.20;83.00
16521;DHT22;8373;48.110;11.522;2022-12-18T05:57:33;-2.30;83.30
16521;DHT22;8373;48.110;11.522;2022-12-18T06:00:02;-2.30;83.80
16521;DHT22;8373;48.110;11.522;2022-12-18T06:02:29;-2.30;84.20
16521;DHT22;8373;48.110;11.522;2022-12-18T06:04:56;-2.20;84.60
16521;DHT22;8373;48.110;11.522;2022-12-18T06:07:23;-2.10;84.70
16521;DHT22;8373;48.110;11.522;2022-12-18T06:09:50;-2.00;84.40
16521;DHT22;8373;48.110;11.522;2022-12-18T06:12:17;-2.00;84.10
16521;DHT22;8373;48.110;11.522;2022-12-18T06:14:44;-2.00;83.80
16521;DHT22;8373;48.110;11.522;2022-12-18T06:17:13;-2.00;83.10
16521;DHT22;8373;48.110;11.522;2022-12-18T06:19:40;-2.00;82.60
16521;DHT22;8373;48.110;11.522;2022-12-18T06:22:07;-2.10;82.30
16521;DHT22;8373;48.110;11.522;2022-12-18T06:24:34;-2.20;82.70
16521;DHT22;8373;48.110;11.522;2022-12-18T06:27:01;-2.20;83.30
16521;DHT22;8373;48.110;11.522;2022-12-18T06:29:28;-2.20;83.90
16521;DHT22;8373;48.110;11.522;2022-12-18T06:31:55;-2.10;84.20
16521;DHT22;8373;48.110;11.522;2022-12-18T06:34:23;-2.20;82.90
16521;DHT22;8373;48.110;11.522;2022-12-18T06:36:51;-2.30;82.80
16521;DHT22;8373;48.110;11.522;2022-12-18T06:39:18;-2.40;83.30
16521;DHT22;8373;48.110;11.522;2022-12-18T06:41:45;-2.40;84.10
16521;DHT22;8373;48.110;11.522;2022-12-18T06:44:15;-2.30;85.00
16521;DHT22;8373;48.110;11.522;2022-12-18T06:46:42;-2.20;84.80
16521;DHT22;8373;48.110;11.522;2022-12-18T06:49:09;-2.10;84.30
16521;DHT22;8373;48.110;11.522;2022-12-18T06:51:37;-2.10;83.70
16521;DHT22;8373;48.110;11.522;2022-12-18T06:54:04;-2.00;83.50
16521;DHT22;8373;48.110;11.522;2022-12-18T06:56:32;-2.00;82.70
16521;DHT22;8373;48.110;11.522;2022-12-18T06:59:00;-2.00;81.80
16521;DHT22;8373;48.110;11.522;2022-12-18T07:01:27;-2.10;82.10
16521;DHT22;8373;48.110;11.522;2022-12-18T07:03:55;-2.20;82.50
16521;DHT22;8373;48.110;11.522;2022-12-18T07:06:25;-2.10;83.00
16521;DHT22;8373;48.110;11.522;2022-12-18T07:08:54;-2.00;83.40
16521;DHT22;8373;48.110;11.522;2022-12-18T07:19:37;-1.80;81.80
16521;DHT22;8373;48.110;11.522;2022-12-18T07:22:04;-1.70;81.90
16521;DHT22;8373;48.110;11.522;2022-12-18T07:24:34;-1.60;82.00
16521;DHT22;8373;48.110;11.522;2022-12-18T07:27:01;-1.60;81.50
16521;DHT22;8373;48.110;11.522;2022-12-18T07:29:28;-1.50;81.00
16521;DHT22;8373;48.110;11.522;2022-12-18T07:31:55;-1.50;80.40
16521;DHT22;8373;48.110;11.522;2022-12-18T07:34:24;-1.50;80.00
16521;DHT22;8373;48.110;11.522;2022-12-18T07:36:51;-1.50;80.20
16521;DHT22;8373;48.110;11.522;2022-12-18T07:39:18;-1.50;80.10
16521;DHT22;8373;48.110;11.522;2022-12-18T07:41:46;-1.50;79.90
16521;DHT22;8373;48.110;11.522;2022-12-18T07:44:33;-1.40;80.00
16521;DHT22;8373;48.110;11.522;2022-12-18T07:47:00;-1.50;79.40
16521;DHT22;8373;48.110;11.522;2022-12-18T07:49:27;-1.60;79.60
16521;DHT22;8373;48.110;11.522;2022-12-18T07:51:55;-1.50;80.00
16521;DHT22;8373;48.110;11.522;2022-12-18T07:54:22;-1.50;79.80
16521;DHT22;8373;48.110;11.522;2022-12-18T07:56:51;-1.50;79.60
16521;DHT22;8373;48.110;11.522;2022-12-18T07:59:18;-1.50;79.50
16521;DHT22;8373;48.110;11.522;2022-12-18T08:01:45;-1.50;79.40
16521;DHT22;8373;48.110;11.522;2022-12-18T08:04:12;-1.50;79.30
16521;DHT22;8373;48.110;11.522;2022-12-18T08:06:39;-1.50;79.40
16521;DHT22;8373;48.110;11.522;2022-12-18T08:09:07;-1.50;79.40
16521;DHT22;8373;48.110;11.522;2022-12-18T08:11:34;-1.40;79.50
16521;DHT22;8373;48.110;11.522;2022-12-18T08:14:02;-1.30;79.40
16521;DHT22;8373;48.110;11.522;2022-12-18T08:16:29;-1.40;78.90
16521;DHT22;8373;48.110;11.522;2022-12-18T08:18:56;-1.40;79.10
16521;DHT22;8373;48.110;11.522;2022-12-18T08:21:26;-1.40;78.60
16521;DHT22;8373;48.110;11.522;2022-12-18T08:23:54;-1.50;77.90
16521;DHT22;8373;48.110;11.522;2022-12-18T08:26:22;-1.60;78.00
16521;DHT22;8373;48.110;11.522;2022-12-18T08:28:49;-1.70;78.70
16521;DHT22;8373;48.110;11.522;2022-12-18T08:31:18;-1.90;78.70
16521;DHT22;8373;48.110;11.522;2022-12-18T08:33:48;-2.00;79.40
16521;DHT22;8373;48.110;11.522;2022-12-18T08:36:16;-2.10;79.50
16521;DHT22;8373;48.110;11.522;2022-12-18T08:38:43;-2.10;79.80
16521;DHT22;8373;48.110;11.522;2022-12-18T08:41:11;-2.20;79.70
16521;DHT22;8373;48.110;11.522;2022-12-18T08:43:39;-2.30;80.20
16521;DHT22;8373;48.110;11.522;2022-12-18T08:46:26;-2.30;81.20
16521;DHT22;8373;48.110;11.522;2022-12-18T08:48:54;-2.20;81.90
16521;DHT22;8373;48.110;11.522;2022-12-18T08:51:21;-2.20;81.40
16521;DHT22;8373;48.110;11.522;2022-12-18T08:53:48;-2.30;80.60
16521;DHT22;8373;48.110;11.522;2022-12-18T08:56:15;-2.30;81.10
16521;DHT22;8373;48.110;11.522;2022-12-18T08:58:42;-2.30;81.50
16521;DHT22;8373;48.110;11.522;2022-12-18T09:01:11;-2.30;81.50
16521;DHT22;8373;48.110;11.522;2022-12-18T09:03:40;-2.30;82.00
16521;DHT22;8373;48.110;11.522;2022-12-18T09:06:07;-2.20;81.80
16521;DHT22;8373;48.110;11.522;2022-12-18T09:08:36;-2.10;81.80
16521;DHT22;8373;48.110;11.522;2022-12-18T09:11:03;-2.20;80.90
16521;DHT22;8373;48.110;11.522;2022-12-18T09:13:30;-2.30;80.70
16521;DHT22;8373;48.110;11.522;2022-12-18T09:15:57;-2.20;80.70
16521;DHT22;8373;48.110;11.522;2022-12-18T09:18:25;-2.20;80.80
16521;DHT22;8373;48.110;11.522;2022-12-18T09:20:53;-2.10;81.10
16521;DHT22;8373;48.110;11.522;2022-12-18T09:23:20;-1.90;80.80
16521;DHT22;8373;48.110;11.522;2022-12-18T09:25:48;-1.80;80.40
16521;DHT22;8373;48.110;11.522;2022-12-18T09:28:17;-1.80;79.40
16521;DHT22;8373;48.110;11.522;2022-12-18T09:30:46;-1.80;79.00
16521;DHT22;8373;48.110;11.522;2022-12-18T09:33:14;-2.00;78.60
16521;DHT22;8373;48.110;11.522;2022-12-18T09:35:42;-2.10;79.30
16521;DHT22;8373;48.110;11.522;2022-12-18T09:38:13;-2.00;80.30
16521;DHT22;8373;48.110;11.522;2022-12-18T09:40:43;-1.90;80.60
16521;DHT22;8373;48.110;11.522;2022-12-18T09:43:15;-1.80;80.40
16521;DHT22;8373;48.110;11.522;2022-12-18T09:45:46;-1.80;80.10
16521;DHT22;8373;48.110;11.522;2022-12-18T09:48:18;-1.60;79.90
16521;DHT22;8373;48.110;11.522;2022-12-18T09:50:48;-1.60;79.20
16521;DHT22;8373;48.110;11.522;2022-12-18T09:53:21;-1.60;78.40
16521;DHT22;8373;48.110;11.522;2022-12-18T09:55:51;-1.70;78.40
16521;DHT22;8373;48.110;11.522;2022-12-18T09:58:26;-1.80;78.80
16521;DHT22;8373;48.110;11.522;2022-12-18T10:00:54;-1.80;78.90
16521;DHT22;8373;48.110;11.522;2022-12-18T10:03:22;-1.70;78.90
16521;DHT22;8373;48.110;11.522;2022-12-18T10:05:58;-1.60;78.40
16521;DHT22;8373;48.110;11.522;2022-12-18T10:08:36;-1.50;78.70
16521;DHT22;8373;48.110;11.522;2022-12-18T10:11:19;-1.60;77.40
16521;DHT22;8373;48.110;11.522;2022-12-18T10:13:52;-1.70;77.40
16521;DHT22;8373;48.110;11.522;2022-12-18T10:16:27;-1.80;77.50
16521;DHT22;8373;48.110;11.522;2022-12-18T10:19:06;-1.80;77.90
16521;DHT22;8373;48.110;11.522;2022-12-18T10:21:44;-1.90;78.10
16521;DHT22;8373;48.110;11.522;2022-12-18T10:24:19;-1.90;78.40
16521;DHT22;8373;48.110;11.522;2022-12-18T10:26:48;-1.90;78.50
16521;DHT22;8373;48.110;11.522;2022-12-18T10:29:16;-1.80;79.20
16521;DHT22;8373;48.110;11.522;2022-12-18T10:31:43;-1.70;79.00
16521;DHT22;8373;48.110;11.522;2022-12-18T10:34:11;-1.60;78.90
16521;DHT22;8373;48.110;11.522;2022-12-18T10:36:42;-1.60;78.30
16521;DHT22;8373;48.110;11.522;2022-12-18T10:39:18;-1.60;77.50
16521;DHT22;8373;48.110;11.522;2022-12-18T10:41:45;-1.60;77.80
16521;DHT22;8373;48.110;11.522;2022-12-18T10:44:17;-1.60;78.20
16521;DHT22;8373;48.110;11.522;2022-12-18T10:46:46;-1.40;78.50
16521;DHT22;8373;48.110;11.522;2022-12-18T10:49:21;-1.30;77.10
16521;DHT22;8373;48.110;11.522;2022-12-18T10:51:49;-1.40;77.00
16521;DHT22;8373;48.110;11.522;2022-12-18T10:54:21;-1.40;77.40
16521;DHT22;8373;48.110;11.522;2022-12-18T10:56:49;-1.30;77.40
16521;DHT22;8373;48.110;11.522;2022-12-18T10:59:17;-1.30;76.90
16521;DHT22;8373;48.110;11.522;2022-12-18T11:01:49;-1.30;76.60
16521;DHT22;8373;48.110;11.522;2022-12-18T11:04:19;-1.30;76.60
16521;DHT22;8373;48.110;11.522;2022-12-18T11:06:59;-1.40;76.90
16521;DHT22;8373;48.110;11.522;2022-12-18T11:09:28;-1.50;77.10
16521;DHT22;8373;48.110;11.522;2022-12-18T11:11:58;-1.40;77.70
16521;DHT22;8373;48.110;11.522;2022-12-18T11:14:29;-1.40;78.50
16521;DHT22;8373;48.110;11.522;2022-12-18T11:16:58;-1.20;77.30
16521;DHT22;8373;48.110;11.522;2022-12-18T11:19:33;-1.30;76.60
16521;DHT22;8373;48.110;11.522;2022-12-18T11:22:02;-1.30;76.80
16521;DHT22;8373;48.110;11.522;2022-12-18T11:24:32;-1.20;77.20
16521;DHT22;8373;48.110;11.522;2022-12-18T11:27:03;-1.10;76.70
16521;DHT22;8373;48.110;11.522;2022-12-18T11:29:33;-1.00;76.20
16521;DHT22;8373;48.110;11.522;2022-12-18T11:35:16;-1.30;75.10
16521;DHT22;8373;48.110;11.522;2022-12-18T11:37:48;-1.40;76.10
16521;DHT22;8373;48.110;11.522;2022-12-18T11:40:19;-1.30;76.60
16521;DHT22;8373;48.110;11.522;2022-12-18T11:42:51;-1.20;76.70
16521;DHT22;8373;48.110;11.522;2022-12-18T11:45:27;-1.00;76.50
16521;DHT22;8373;48.110;11.522;2022-12-18T11:48:01;-0.80;75.60
16521;DHT22;8373;48.110;11.522;2022-12-18T11:50:33;-0.90;74.40
16521;DHT22;8373;48.110;11.522;2022-12-18T11:53:10;-1.00;74.30
16521;DHT22;8373;48.110;11.522;2022-12-18T11:55:43;-1.20;74.40
16521;DHT22;8373;48.110;11.522;2022-12-18T11:58:24;-1.20;75.40
16521;DHT22;8373;48.110;11.522;2022-12-18T12:01:00;-1.20;75.60
16521;DHT22;8373;48.110;11.522;2022-12-18T12:03:45;-1.30;75.50
16521;DHT22;8373;48.110;11.522;2022-12-18T12:06:19;-1.20;76.40
16521;DHT22;8373;48.110;11.522;2022-12-18T12:09:04;-1.10;76.30
16521;DHT22;8373;48.110;11.522;2022-12-18T12:11:43;-1.20;75.30
16521;DHT22;8373;48.110;11.522;2022-12-18T12:17:11;-1.10;75.60
16521;DHT22;8373;48.110;11.522;2022-12-18T12:19:48;-1.20;75.10
16521;DHT22;8373;48.110;11.522;2022-12-18T12:22:23;-1.30;75.20
16521;DHT22;8373;48.110;11.522;2022-12-18T12:25:03;-1.30;75.80
16521;DHT22;8373;48.110;11.522;2022-12-18T12:27:39;-1.30;76.20
16521;DHT22;8373;48.110;11.522;2022-12-18T12:30:18;-1.30;76.20
16521;DHT22;8373;48.110;11.522;2022-12-18T12:32:58;-1.40;75.90
16521;DHT22;8373;48.110;11.522;2022-12-18T12:35:42;-1.50;76.40
16521;DHT22;8373;48.110;11.522;2022-12-18T12:38:13;-1.50;77.10
16521;DHT22;8373;48.110;11.522;2022-12-18T12:40:43;-1.50;77.60
16521;DHT22;8373;48.110;11.522;2022-12-18T12:43:22;-1.40;77.40
16521;DHT22;8373;48.110;11.522;2022-12-18T12:45:53;-1.50;77.10
16521;DHT22;8373;48.110;11.522;2022-12-18T12:48:37;-1.40;77.30
16521;DHT22;8373;48.110;11.522;2022-12-18T12:51:12;-1.50;77.60
16521;DHT22;8373;48.110;11.522;2022-12-18T12:53:40;-1.40;77.70
16521;DHT22;8373;48.110;11.522;2022-12-18T12:56:10;-1.50;77.30
16521;DHT22;8373;48.110;11.522;2022-12-18T12:58:50;-1.50;77.70
16521;DHT22;8373;48.110;11.522;2022-12-18T13:01:27;-1.60;77.50
16521;DHT22;8373;48.110;11.522;2022-12-18T13:04:02;-1.60;77.80
16521;DHT22;8373;48.110;11.522;2022-12-18T13:06:40;-1.50;78.20
16521;DHT22;8373;48.110;11.522;2022-12-18T13:09:09;-1.30;78.60
16521;DHT22;8373;48.110;11.522;2022-12-18T13:11:38;-1.30;78.60
16521;DHT22;8373;48.110;11.522;2022-12-18T13:14:33;-1.20;77.80
16521;DHT22;8373;48.110;11.522;2022-12-18T13:17:27;-1.20;77.30
16521;DHT22;8373;48.110;11.522;2022-12-18T13:20:10;-1.20;77.30
16521;DHT22;8373;48.110;11.522;2022-12-18T13:22:42;-1.20;77.00
16521;DHT22;8373;48.110;11.522;2022-12-18T13:25:34;-1.20;77.30
16521;DHT22;8373;48.110;11.522;2022-12-18T13:28:05;-1.10;77.30
16521;DHT22;8373;48.110;11.522;2022-12-18T13:30:49;-0.90;77.10
16521;DHT22;8373;48.110;11.522;2022-12-18T13:33:49;-0.90;76.40
16521;DHT22;8373;48.110;11.522;2022-12-18T13:36:33;-0.90;75.40
16521;DHT22;8373;48.110;11.522;2022-12-18T13:42:34;-0.90;75.40
16521;DHT22;8373;48.110;11.522;2022-12-18T13:45:42;-0.90;75.00
16521;DHT22;8373;48.110;11.522;2022-12-18T13:48:26;-1.10;75.10
16521;DHT22;8373;48.110;11.522;2022-12-18T13:50:59;-1.20;75.30
16521;DHT22;8373;48.110;11.522;2022-12-18T13:53:30;-1.20;76.10
16521;DHT22;8373;48.110;11.522;2022-12-18T13:55:59;-1.20;76.10
16521;DHT22;8373;48.110;11.522;2022-12-18T13:58:26;-1.30;76.10
16521;DHT22;8373;48.110;11.522;2022-12-18T14:00:53;-1.40;76.50
16521;DHT22;8373;48.110;11.522;2022-12-18T14:03:25;-1.50;76.90
16521;DHT22;8373;48.110;11.522;2022-12-18T14:05:55;-1.60;77.20
16521;DHT22;8373;48.110;11.522;2022-12-18T14:08:23;-1.60;78.40
16521;DHT22;8373;48.110;11.522;2022-12-18T14:10:54;-1.50;78.10
16521;DHT22;8373;48.110;11.522;2022-12-18T14:13:26;-1.50;78.20
16521;DHT22;8373;48.110;11.522;2022-12-18T14:15:56;-1.40;78.10
16521;DHT22;8373;48.110;11.522;2022-12-18T14:18:26;-1.40;78.10
16521;DHT22;8373;48.110;11.522;2022-12-18T14:20:58;-1.40;77.80
16521;DHT22;8373;48.110;11.522;2022-12-18T14:23:31;-1.50;77.30
16521;DHT22;8373;48.110;11.522;2022-12-18T14:25:59;-1.50;77.30
16521;DHT22;8373;48.110;11.522;2022-12-18T14:28:26;-1.50;77.60
16521;DHT22;8373;48.110;11.522;2022-12-18T14:30:53;-1.50;77.50
16521;DHT22;8373;48.110;11.522;2022-12-18T14:33:24;-1.50;77.50
16521;DHT22;8373;48.110;11.522;2022-12-18T14:35:54;-1.40;77.90
16521;DHT22;8373;48.110;11.522;2022-12-18T14:38:24;-1.40;77.90
16521;DHT22;8373;48.110;11.522;2022-12-18T14:40:53;-1.40;77.80
16521;DHT22;8373;48.110;11.522;2022-12-18T14:43:20;-1.40;77.60
16521;DHT22;8373;48.110;11.522;2022-12-18T14:45:48;-1.30;77.90
16521;DHT22;8373;48.110;11.522;2022-12-18T14:48:17;-1.30;77.90
16521;DHT22;8373;48.110;11.522;2022-12-18T14:50:55;-1.30;77.50
16521;DHT22;8373;48.110;11.522;2022-12-18T14:53:26;-1.30;77.40
16521;DHT22;8373;48.110;11.522;2022-12-18T14:55:55;-1.30;77.40
16521;DHT22;8373;48.110;11.522;2022-12-18T14:58:22;-1.30;77.40
16521;DHT22;8373;48.110;11.522;2022-12-18T15:00:49;-1.20;77.50
16521;DHT22;8373;48.110;11.522;2022-12-18T15:03:18;-1.30;77.20
16521;DHT22;8373;48.110;11.522;2022-12-18T15:05:48;-1.30;77.10
16521;DHT22;8373;48.110;11.522;2022-12-18T15:08:29;-1.40;77.40
16521;DHT22;8373;48.110;11.522;2022-12-18T15:10:57;-1.40;78.00
16521;DHT22;8373;48.110;11.522;2022-12-18T15:13:24;-1.40;78.00
16521;DHT22;8373;48.110;11.522;2022-12-18T15:15:52;-1.40;77.90
16521;DHT22;8373;48.110;11.522;2022-12-18T15:18:21;-1.40;77.90
16521;DHT22;8373;48.110;11.522;2022-12-18T15:20:53;-1.40;78.10
16521;DHT22;8373;48.110;11.522;2022-12-18T15:23:21;-1.40;77.90
16521;DHT22;8373;48.110;11.522;2022-12-18T15:25:55;-1.40;77.90
16521;DHT22;8373;48.110;11.522;2022-12-18T15:28:25;-1.40;77.70
16521;DHT22;8373;48.110;11.522;2022-12-18T15:31:23;-1.40;77.20
16521;DHT22;8373;48.110;11.522;2022-12-18T15:34:13;-1.40;77.50
16521;DHT22;8373;48.110;11.522;2022-12-18T15:36:42;-1.60;77.50
16521;DHT22;8373;48.110;11.522;2022-12-18T15:39:11;-1.60;78.10
16521;DHT22;8373;48.110;11.522;2022-12-18T15:41:39;-1.60;77.90
16521;DHT22;8373;48.110;11.522;2022-12-18T15:44:22;-1.90;77.60
16521;DHT22;8373;48.110;11.522;2022-12-18T15:46:51;-2.10;78.40
16521;DHT22;8373;48.110;11.522;2022-12-18T15:49:18;-2.20;79.10
16521;DHT22;8373;48.110;11.522;2022-12-18T15:51:51;-2.30;79.70
16521;DHT22;8373;48.110;11.522;2022-12-18T15:54:19;-2.30;80.10
16521;DHT22;8373;48.110;11.522;2022-12-18T15:57:09;-2.30;80.50
16521;DHT22;8373;48.110;11.522;2022-12-18T15:59:50;-2.40;80.40
16521;DHT22;8373;48.110;11.522;2022-12-18T16:02:19;-2.40;80.60
16521;DHT22;8373;48.110;11.522;2022-12-18T16:04:48;-2.40;80.70
16521;DHT22;8373;48.110;11.522;2022-12-18T16:07:16;-2.40;81.20
16521;DHT22;8373;48.110;11.522;2022-12-18T16:09:44;-2.40;81.70